Time;durP1;ratioP1;P1;durP2;ratioP2;P2;SDS_P1;SDS_P2;PMS_P1;PMS_P2;Temp;Humidity;BMP_temperature;BMP_pressure;BME280_temperature;BME280_humidity;BME280_pressure;Samples;Min_cycle;Max_cycle;Signal;HPM_P1;HPM_P2
2022/02/06 00:00:10;;;;;;;;;;;22.10;42.20;;;;;;683132;29;838;-84
2022/02/06 00:00:31;;;;;;;;;;;22.00;42.10;;;;;;682952;29;815;-83
2022/02/06 00:00:59;;;;;;;;;;;22.00;42.10;;;;;;683019;29;905;-84
2022/02/06 00:01:20;;;;;;;;;;;22.00;42.10;;;;;;685384;28;830;-85
2022/02/06 00:01:41;;;;;;;;;;;22.10;42.10;;;;;;682898;29;1218;-85
2022/02/06 00:02:01;;;;;;;;;;;22.10;42.10;;;;;;683068;29;894;-84
2022/02/06 00:02:32;;;;;;;;;;;22.10;42.10;;;;;;680164;29;1393;-84
2022/02/06 00:02:55;;;;;;;;;;;22.10;42.10;;;;;;680014;29;1412;-84
2022/02/06 00:03:16;;;;;;;;;;;22.10;42.10;;;;;;677589;29;935;-84
2022/02/06 00:03:37;;;;;;;;;;;22.10;42.00;;;;;;676945;29;1422;-83
2022/02/06 00:03:58;;;;;;;;;;;22.10;42.00;;;;;;677731;29;1192;-83
2022/02/06 00:04:19;;;;;;;;;;;22.10;42.00;;;;;;677758;29;1319;-83
2022/02/06 00:04:41;;;;;;;;;;;22.10;42.00;;;;;;677589;29;930;-83
2022/02/06 00:05:02;;;;;;;;;;;22.10;42.00;;;;;;678492;29;871;-84
2022/02/06 00:05:23;;;;;;;;;;;22.10;42.00;;;;;;677966;29;924;-83
2022/02/06 00:05:44;;;;;;;;;;;22.10;42.00;;;;;;681137;29;870;-81
2022/02/06 00:06:11;;;;;;;;;;;22.10;42.00;;;;;;683297;29;867;-82
2022/02/06 00:06:34;;;;;;;;;;;22.10;42.00;;;;;;683357;29;862;-83
2022/02/06 00:06:54;;;;;;;;;;;22.10;42.10;;;;;;680880;29;1339;-80
2022/02/06 00:07:15;;;;;;;;;;;22.10;42.90;;;;;;679875;29;1344;-83
2022/02/06 00:07:36;;;;;;;;;;;22.10;42.10;;;;;;681238;29;740;-85
2022/02/06 00:07:58;;;;;;;;;;;22.10;42.90;;;;;;681480;29;1072;-83
2022/02/06 00:08:18;;;;;;;;;;;22.10;42.80;;;;;;678581;29;1233;-83
2022/02/06 00:08:40;;;;;;;;;;;22.10;42.10;;;;;;678236;29;808;-83
2022/02/06 00:09:00;;;;;;;;;;;21.70;42.10;;;;;;680874;29;823;-83
2022/02/06 00:09:21;;;;;;;;;;;22.10;42.00;;;;;;682764;29;1508;-84
2022/02/06 00:09:44;;;;;;;;;;;22.20;42.10;;;;;;683019;29;811;-84
2022/02/06 00:10:05;;;;;;;;;;;22.10;42.00;;;;;;683785;28;839;-84
2022/02/06 00:10:25;;;;;;;;;;;22.10;42.10;;;;;;682929;29;1271;-83
2022/02/06 00:10:46;;;;;;;;;;;22.10;42.00;;;;;;682965;29;950;-84
2022/02/06 00:11:07;;;;;;;;;;;22.10;42.10;;;;;;683229;29;950;-83
2022/02/06 00:11:27;;;;;;;;;;;22.20;42.00;;;;;;682888;29;831;-84
2022/02/06 00:11:48;;;;;;;;;;;22.20;42.00;;;;;;682968;29;796;-83
2022/02/06 00:12:08;;;;;;;;;;;22.10;41.90;;;;;;680499;29;831;-83
2022/02/06 00:12:29;;;;;;;;;;;22.10;41.90;;;;;;683054;29;933;-84
2022/02/06 00:12:50;;;;;;;;;;;22.20;42.00;;;;;;682983;29;846;-83
2022/02/06 00:13:10;;;;;;;;;;;22.20;42.00;;;;;;682857;29;898;-84
2022/02/06 00:13:31;;;;;;;;;;;22.20;42.00;;;;;;682959;29;783;-84
2022/02/06 00:13:51;;;;;;;;;;;22.20;42.00;;;;;;683165;28;1005;-84
2022/02/06 00:14:12;;;;;;;;;;;22.20;42.00;;;;;;685595;28;1315;-83
2022/02/06 00:14:34;;;;;;;;;;;22.20;42.20;;;;;;687741;28;1111;-84
2022/02/06 00:14:54;;;;;;;;;;;22.20;42.00;;;;;;691324;28;846;-82
2022/02/06 00:15:16;;;;;;;;;;;22.20;42.10;;;;;;690536;28;1360;-82
2022/02/06 00:15:36;;;;;;;;;;;22.20;42.00;;;;;;691128;28;901;-84
2022/02/06 00:15:57;;;;;;;;;;;22.20;42.20;;;;;;691135;28;1894;-84
2022/02/06 00:16:18;;;;;;;;;;;22.20;42.00;;;;;;691166;28;810;-83
2022/02/06 00:16:39;;;;;;;;;;;22.20;42.00;;;;;;691118;28;845;-83
2022/02/06 00:16:59;;;;;;;;;;;22.20;42.00;;;;;;691075;28;1339;-83
2022/02/06 00:17:20;;;;;;;;;;;22.20;42.00;;;;;;688261;28;1232;-83
2022/02/06 00:17:41;;;;;;;;;;;22.20;42.00;;;;;;688465;28;799;-83
2022/02/06 00:18:01;;;;;;;;;;;22.20;41.90;;;;;;691003;28;866;-84
2022/02/06 00:18:22;;;;;;;;;;;22.20;41.90;;;;;;691128;28;791;-83
2022/02/06 00:18:44;;;;;;;;;;;22.20;42.00;;;;;;691151;28;799;-83
2022/02/06 00:19:04;;;;;;;;;;;22.20;42.00;;;;;;691380;28;1119;-80
2022/02/06 00:19:25;;;;;;;;;;;22.20;42.00;;;;;;693619;28;846;-82
2022/02/06 00:19:45;;;;;;;;;;;22.20;41.90;;;;;;693412;28;865;-83
2022/02/06 00:20:09;;;;;;;;;;;22.20;42.10;;;;;;691490;28;1173;-85
2022/02/06 00:20:37;;;;;;;;;;;22.20;42.00;;;;;;690978;28;1409;-85
2022/02/06 00:21:03;;;;;;;;;;;22.20;42.00;;;;;;690933;28;1579;-83
2022/02/06 00:21:24;;;;;;;;;;;22.20;42.00;;;;;;691225;28;853;-84
2022/02/06 00:21:45;;;;;;;;;;;22.20;42.00;;;;;;690977;28;1424;-83
2022/02/06 00:22:08;;;;;;;;;;;22.20;42.00;;;;;;693710;28;857;-83
2022/02/06 00:22:43;;;;;;;;;;;22.20;42.00;;;;;;691547;28;916;-84
2022/02/06 00:23:08;;;;;;;;;;;22.20;41.90;;;;;;690970;28;1492;-84
2022/02/06 00:23:30;;;;;;;;;;;22.20;41.90;;;;;;691017;28;932;-85
2022/02/06 00:23:53;;;;;;;;;;;22.20;41.90;;;;;;691033;28;913;-84
2022/02/06 00:24:22;;;;;;;;;;;22.20;41.90;;;;;;688287;28;1418;-84
2022/02/06 00:24:51;;;;;;;;;;;21.50;41.60;;;;;;688393;28;846;-83
2022/02/06 00:25:23;;;;;;;;;;;22.20;41.90;;;;;;688258;28;882;-84
2022/02/06 00:26:01;;;;;;;;;;;22.20;42.10;;;;;;688277;28;925;-85
2022/02/06 00:26:57;;;;;;;;;;;22.20;42.00;;;;;;691028;28;719;-85
2022/02/06 00:27:33;;;;;;;;;;;22.20;41.90;;;;;;693705;28;890;-85
2022/02/06 00:29:19;;;;;;;;;;;22.20;41.80;;;;;;693791;28;806;-85
2022/02/06 00:29:56;;;;;;;;;;;22.20;41.80;;;;;;691307;28;893;-85
2022/02/06 00:31:23;;;;;;;;;;;22.10;41.80;;;;;;691123;28;700;-85
2022/02/06 00:32:23;;;;;;;;;;;22.10;41.90;;;;;;691228;28;707;-84
2022/02/06 00:32:49;;;;;;;;;;;22.10;41.90;;;;;;690996;28;1212;-84
2022/02/06 00:33:22;;;;;;;;;;;23.10;42.50;;;;;;691007;28;870;-85
2022/02/06 00:34:46;;;;;;;;;;;22.10;41.90;;;;;;688468;28;1489;-85
2022/02/06 00:35:16;;;;;;;;;;;22.10;42.00;;;;;;691179;28;711;-85
2022/02/06 00:36:02;;;;;;;;;;;22.10;42.00;;;;;;691131;28;1977;-84
2022/02/06 00:39:10;;;;;;;;;;;22.10;42.20;;;;;;688236;28;1036;-85
2022/02/06 00:39:31;;;;;;;;;;;22.00;42.10;;;;;;688294;28;1136;-85
2022/02/06 00:39:51;;;;;;;;;;;22.00;42.10;;;;;;688296;28;826;-85
2022/02/06 00:40:13;;;;;;;;;;;22.00;42.10;;;;;;688235;28;890;-85
2022/02/06 00:41:22;;;;;;;;;;;22.00;42.20;;;;;;688163;28;1170;-86
2022/02/06 00:41:42;;;;;;;;;;;22.00;42.20;;;;;;688216;28;1056;-85
2022/02/06 00:42:03;;;;;;;;;;;22.00;42.20;;;;;;688179;28;1383;-85
2022/02/06 00:42:23;;;;;;;;;;;22.00;42.20;;;;;;688172;28;1073;-83
2022/02/06 00:42:44;;;;;;;;;;;22.00;42.20;;;;;;688277;28;961;-83
2022/02/06 00:43:04;;;;;;;;;;;22.00;42.20;;;;;;688291;28;862;-83
2022/02/06 00:43:26;;;;;;;;;;;22.00;42.20;;;;;;688227;28;898;-85
2022/02/06 00:43:47;;;;;;;;;;;22.00;42.20;;;;;;688287;28;1108;-85
2022/02/06 00:44:08;;;;;;;;;;;22.00;42.20;;;;;;688247;28;1509;-85
2022/02/06 00:44:28;;;;;;;;;;;22.00;42.20;;;;;;688190;28;1350;-84
2022/02/06 00:44:49;;;;;;;;;;;22.00;42.20;;;;;;688256;28;941;-84
2022/02/06 00:45:09;;;;;;;;;;;22.00;42.20;;;;;;688193;28;890;-85
2022/02/06 00:45:30;;;;;;;;;;;22.00;42.30;;;;;;688325;28;977;-85
2022/02/06 00:45:50;;;;;;;;;;;22.00;42.20;;;;;;688269;28;882;-85
2022/02/06 00:46:13;;;;;;;;;;;22.00;42.20;;;;;;688254;28;894;-85
2022/02/06 00:46:37;;;;;;;;;;;21.90;42.10;;;;;;688149;28;905;-85
2022/02/06 00:47:02;;;;;;;;;;;22.00;42.20;;;;;;688317;28;822;-85
2022/02/06 00:47:24;;;;;;;;;;;22.00;42.10;;;;;;688172;28;791;-84
2022/02/06 00:47:44;;;;;;;;;;;22.00;42.20;;;;;;688231;28;873;-80
2022/02/06 00:48:05;;;;;;;;;;;22.00;42.20;;;;;;688298;28;1142;-84
2022/02/06 00:48:27;;;;;;;;;;;22.00;42.20;;;;;;688359;28;775;-85
2022/02/06 00:48:54;;;;;;;;;;;22.00;42.30;;;;;;688136;28;1073;-84
2022/02/06 00:49:22;;;;;;;;;;;21.90;42.30;;;;;;688023;28;1083;-81
2022/02/06 00:49:44;;;;;;;;;;;21.30;41.90;;;;;;688368;28;815;-83
2022/02/06 00:50:06;;;;;;;;;;;22.00;42.30;;;;;;688372;28;881;-85
2022/02/06 00:50:28;;;;;;;;;;;21.90;42.30;;;;;;685452;28;1394;-85
2022/02/06 00:50:57;;;;;;;;;;;22.00;42.30;;;;;;685593;28;858;-85
2022/02/06 00:51:27;;;;;;;;;;;21.90;42.30;;;;;;685422;28;808;-85
2022/02/06 00:51:55;;;;;;;;;;;21.90;42.50;;;;;;685622;28;894;-85
2022/02/06 00:52:25;;;;;;;;;;;21.90;42.30;;;;;;686679;28;791;-83
2022/02/06 00:53:01;;;;;;;;;;;21.90;42.40;;;;;;688201;28;1271;-81
2022/02/06 00:53:21;;;;;;;;;;;21.90;42.40;;;;;;688228;28;863;-85
2022/02/06 00:53:42;;;;;;;;;;;21.90;42.30;;;;;;688333;28;811;-85
2022/02/06 00:54:02;;;;;;;;;;;21.90;42.30;;;;;;688158;28;1346;-85
2022/02/06 00:54:23;;;;;;;;;;;21.90;42.30;;;;;;688335;28;858;-84
2022/02/06 00:54:44;;;;;;;;;;;21.90;42.30;;;;;;688328;28;796;-84
2022/02/06 00:55:05;;;;;;;;;;;21.90;42.30;;;;;;688219;28;870;-85
2022/02/06 00:55:25;;;;;;;;;;;21.90;42.30;;;;;;688062;28;1305;-84
2022/02/06 00:55:46;;;;;;;;;;;21.90;42.30;;;;;;688259;28;1952;-83
2022/02/06 00:56:06;;;;;;;;;;;21.90;42.20;;;;;;688415;28;834;-84
2022/02/06 00:56:27;;;;;;;;;;;21.90;42.40;;;;;;688214;28;1410;-84
2022/02/06 00:56:48;;;;;;;;;;;21.90;42.30;;;;;;688166;28;1271;-85
2022/02/06 00:57:09;;;;;;;;;;;21.90;42.40;;;;;;687554;28;933;-83
2022/02/06 00:57:29;;;;;;;;;;;21.90;42.40;;;;;;688430;28;803;-84
2022/02/06 00:57:50;;;;;;;;;;;21.90;42.30;;;;;;685506;28;1355;-83
2022/02/06 00:58:11;;;;;;;;;;;21.90;42.50;;;;;;685978;28;859;-84
2022/02/06 00:58:31;;;;;;;;;;;21.90;42.40;;;;;;685865;28;811;-85
2022/02/06 00:58:52;;;;;;;;;;;21.90;42.50;;;;;;685696;28;1346;-84
2022/02/06 00:59:13;;;;;;;;;;;22.00;42.40;;;;;;682809;28;1185;-83
2022/02/06 00:59:35;;;;;;;;;;;21.90;42.50;;;;;;683513;28;878;-83
2022/02/06 00:59:55;;;;;;;;;;;21.90;42.20;;;;;;685806;28;882;-83
2022/02/06 01:00:16;;;;;;;;;;;21.90;42.40;;;;;;685874;28;783;-84
2022/02/06 01:00:37;;;;;;;;;;;21.90;42.30;;;;;;685803;28;850;-83
2022/02/06 01:00:58;;;;;;;;;;;21.90;42.30;;;;;;686216;28;823;-83
2022/02/06 01:01:19;;;;;;;;;;;21.90;42.30;;;;;;688367;28;905;-83
2022/02/06 01:01:42;;;;;;;;;;;21.90;42.30;;;;;;688577;28;1000;-83
2022/02/06 01:02:03;;;;;;;;;;;21.90;42.40;;;;;;688975;28;913;-84
2022/02/06 01:02:23;;;;;;;;;;;21.90;42.40;;;;;;686058;28;1293;-84
2022/02/06 01:02:44;;;;;;;;;;;21.90;42.50;;;;;;686182;28;1524;-84
2022/02/06 01:03:05;;;;;;;;;;;21.50;42.10;;;;;;686080;28;1118;-82
2022/02/06 01:03:25;;;;;;;;;;;21.90;42.60;;;;;;686124;28;878;-84
2022/02/06 01:03:47;;;;;;;;;;;21.90;42.60;;;;;;686009;28;1343;-84
2022/02/06 01:04:10;;;;;;;;;;;21.90;42.20;;;;;;683411;29;1320;-85
2022/02/06 01:04:34;;;;;;;;;;;21.90;42.30;;;;;;684121;28;885;-83
2022/02/06 01:04:55;;;;;;;;;;;21.90;42.30;;;;;;686140;28;795;-80
2022/02/06 01:05:15;;;;;;;;;;;21.90;42.30;;;;;;686102;28;850;-82
2022/02/06 01:05:36;;;;;;;;;;;21.90;42.40;;;;;;686114;28;791;-84
2022/02/06 01:05:57;;;;;;;;;;;21.90;42.40;;;;;;687184;28;898;-85
2022/02/06 01:06:17;;;;;;;;;;;21.80;42.30;;;;;;688811;28;835;-82
2022/02/06 01:06:38;;;;;;;;;;;21.90;42.40;;;;;;688949;28;806;-81
2022/02/06 01:06:58;;;;;;;;;;;21.90;42.40;;;;;;688953;28;799;-82
2022/02/06 01:07:19;;;;;;;;;;;21.80;42.30;;;;;;688585;28;1302;-85
2022/02/06 01:07:40;;;;;;;;;;;21.90;42.30;;;;;;688870;28;826;-84
2022/02/06 01:08:00;;;;;;;;;;;21.90;42.40;;;;;;688882;28;897;-82
2022/02/06 01:08:21;;;;;;;;;;;21.80;42.20;;;;;;688806;28;941;-83
2022/02/06 01:08:42;;;;;;;;;;;21.90;42.30;;;;;;688924;28;847;-83
2022/02/06 01:09:03;;;;;;;;;;;21.80;42.40;;;;;;686119;28;1208;-83
2022/02/06 01:09:23;;;;;;;;;;;21.80;42.50;;;;;;686286;28;993;-83
2022/02/06 01:09:44;;;;;;;;;;;21.80;42.40;;;;;;685974;28;1090;-84
2022/02/06 01:10:05;;;;;;;;;;;21.80;42.20;;;;;;686226;28;830;-83
2022/02/06 01:10:27;;;;;;;;;;;21.80;42.30;;;;;;683442;28;1359;-81
2022/02/06 01:10:48;;;;;;;;;;;21.80;42.40;;;;;;684139;28;990;-83
2022/02/06 01:11:10;;;;;;;;;;;21.80;42.40;;;;;;686135;28;854;-82
2022/02/06 01:11:33;;;;;;;;;;;21.80;42.40;;;;;;686109;28;889;-81
2022/02/06 01:11:55;;;;;;;;;;;21.80;42.50;;;;;;683663;29;1257;-81
2022/02/06 01:12:20;;;;;;;;;;;21.80;42.40;;;;;;684944;28;1123;-83
2022/02/06 01:12:45;;;;;;;;;;;21.80;42.70;;;;;;686587;28;908;-83
2022/02/06 01:13:18;;;;;;;;;;;21.80;42.50;;;;;;686730;28;826;-82
2022/02/06 01:14:54;;;;;;;;;;;21.80;42.50;;;;;;684369;28;1221;-83
2022/02/06 01:15:23;;;;;;;;;;;21.80;42.30;;;;;;686274;28;806;-82
2022/02/06 01:15:53;;;;;;;;;;;21.80;42.30;;;;;;686086;28;956;-82
2022/02/06 01:16:20;;;;;;;;;;;21.80;42.40;;;;;;691378;28;987;-84
2022/02/06 01:16:55;;;;;;;;;;;21.80;42.40;;;;;;691888;28;833;-83
2022/02/06 01:17:31;;;;;;;;;;;21.80;42.50;;;;;;691829;28;856;-81
2022/02/06 01:18:02;;;;;;;;;;;21.80;42.50;;;;;;691818;28;837;-83
2022/02/06 01:18:38;;;;;;;;;;;21.80;42.40;;;;;;691693;28;1335;-84
2022/02/06 01:19:06;;;;;;;;;;;21.80;42.50;;;;;;691779;28;917;-84
2022/02/06 01:19:37;;;;;;;;;;;21.80;42.50;;;;;;689030;28;817;-84
2022/02/06 01:20:03;;;;;;;;;;;21.80;42.50;;;;;;688990;28;1004;-82
2022/02/06 01:20:35;;;;;;;;;;;21.80;42.40;;;;;;691519;28;1179;-83
2022/02/06 01:21:02;;;;;;;;;;;21.80;42.30;;;;;;691782;28;1425;-82
2022/02/06 01:21:56;;;;;;;;;;;21.80;42.40;;;;;;694596;28;766;-79
2022/02/06 01:22:20;;;;;;;;;;;21.80;42.30;;;;;;693099;28;822;-86
2022/02/06 01:22:50;;;;;;;;;;;21.80;42.60;;;;;;691766;28;1553;-81
2022/02/06 01:23:24;;;;;;;;;;;21.80;42.50;;;;;;694373;28;853;-86
2022/02/06 01:23:55;;;;;;;;;;;21.80;42.30;;;;;;694379;28;794;-83
2022/02/06 01:25:03;;;;;;;;;;;21.80;42.20;;;;;;691867;28;937;-84
2022/02/06 01:25:31;;;;;;;;;;;21.80;42.30;;;;;;691105;28;1189;-83
2022/02/06 01:26:03;;;;;;;;;;;21.80;42.30;;;;;;691673;28;874;-83
2022/02/06 01:26:42;;;;;;;;;;;21.80;42.30;;;;;;688426;28;1335;-83
2022/02/06 01:27:38;;;;;;;;;;;21.80;42.30;;;;;;686891;28;1437;-83
2022/02/06 01:28:04;;;;;;;;;;;21.80;42.30;;;;;;688682;28;1456;-84
2022/02/06 01:28:42;;;;;;;;;;;21.80;42.50;;;;;;691447;28;890;-82
2022/02/06 01:29:19;;;;;;;;;;;21.80;42.40;;;;;;691718;28;1436;-83
2022/02/06 01:29:56;;;;;;;;;;;21.80;42.40;;;;;;691742;28;969;-83
2022/02/06 01:30:25;;;;;;;;;;;21.80;42.50;;;;;;691814;28;869;-84
2022/02/06 01:30:59;;;;;;;;;;;21.80;42.50;;;;;;691797;28;886;-82
2022/02/06 01:32:04;;;;;;;;;;;21.70;42.60;;;;;;694647;28;604;-85
2022/02/06 01:32:34;;;;;;;;;;;21.80;42.50;;;;;;693375;28;1302;-85
2022/02/06 01:33:00;;;;;;;;;;;21.70;42.60;;;;;;691663;28;1286;-84
2022/02/06 01:33:29;;;;;;;;;;;21.70;42.50;;;;;;692186;28;877;-84
2022/02/06 01:33:54;;;;;;;;;;;21.70;42.60;;;;;;691941;28;866;-82
2022/02/06 01:34:18;;;;;;;;;;;21.70;42.60;;;;;;691921;28;854;-85
2022/02/06 01:34:47;;;;;;;;;;;21.70;42.50;;;;;;691576;28;1241;-84
2022/02/06 01:35:13;;;;;;;;;;;21.70;42.50;;;;;;691634;28;885;-83
2022/02/06 01:36:01;;;;;;;;;;;21.70;42.50;;;;;;691677;28;1212;-84
2022/02/06 01:36:43;;;;;;;;;;;21.70;42.60;;;;;;691841;28;699;-83
2022/02/06 01:37:38;;;;;;;;;;;21.70;42.60;;;;;;692025;28;704;-81
2022/02/06 01:38:26;;;;;;;;;;;21.70;42.50;;;;;;694712;28;1040;-83
2022/02/06 01:40:39;;;;;;;;;;;21.70;42.70;;;;;;692073;28;1259;-84
2022/02/06 01:41:13;;;;;;;;;;;21.70;42.70;;;;;;693223;28;1146;-84
2022/02/06 01:41:40;;;;;;;;;;;21.70;42.60;;;;;;693272;28;904;-84
2022/02/06 01:42:03;;;;;;;;;;;21.70;42.60;;;;;;693142;28;889;-84
2022/02/06 01:42:35;;;;;;;;;;;21.70;42.60;;;;;;693056;28;1104;-84
2022/02/06 01:43:04;;;;;;;;;;;21.70;42.50;;;;;;693282;28;924;-84
2022/02/06 01:43:32;;;;;;;;;;;21.70;42.60;;;;;;693241;28;893;-82
2022/02/06 01:43:59;;;;;;;;;;;21.70;42.70;;;;;;690575;28;1160;-84
2022/02/06 01:44:30;;;;;;;;;;;21.70;42.60;;;;;;692734;28;838;-84
2022/02/06 01:45:08;;;;;;;;;;;21.70;42.70;;;;;;692801;28;1364;-84
2022/02/06 01:46:22;;;;;;;;;;;21.70;42.80;;;;;;687319;28;1601;-84
2022/02/06 02:01:41;;;;;;;;;;;21.80;43.60;;;;;;683273;29;692;-85
2022/02/06 02:04:04;;;;;;;;;;;21.80;43.60;;;;;;675326;29;1384;-80
2022/02/06 02:05:46;;;;;;;;;;;21.90;43.50;;;;;;675401;29;1290;-85
2022/02/06 02:07:35;;;;;;;;;;;21.90;43.50;;;;;;672969;29;653;-85
2022/02/06 02:09:35;;;;;;;;;;;21.90;43.50;;;;;;673079;29;677;-85
2022/02/06 02:11:59;;;;;;;;;;;21.90;43.40;;;;;;673024;29;1001;-84
2022/02/06 02:17:20;;;;;;;;;;;21.30;43.10;;;;;;671113;29;943;-86
2022/02/06 02:18:04;;;;;;;;;;;21.90;43.30;;;;;;671487;29;832;-86
2022/02/06 02:25:02;;;;;;;;;;;22.00;43.30;;;;;;663991;29;1040;-85
2022/02/06 02:26:42;;;;;;;;;;;22.00;43.20;;;;;;661731;30;694;-85
2022/02/06 02:43:47;;;;;;;;;;;21.70;43.20;;;;;;660106;30;1147;-88
2022/02/06 02:46:31;;;;;;;;;;;21.70;43.30;;;;;;660034;30;1099;-82
2022/02/06 02:47:30;;;;;;;;;;;21.70;43.30;;;;;;660073;30;1002;-82
2022/02/06 02:48:00;;;;;;;;;;;21.70;43.10;;;;;;659843;30;1753;-82
2022/02/06 02:48:22;;;;;;;;;;;21.70;43.10;;;;;;657533;30;1065;-81
2022/02/06 02:48:44;;;;;;;;;;;21.70;43.10;;;;;;660189;29;908;-80
2022/02/06 02:49:08;;;;;;;;;;;21.70;43.30;;;;;;660061;30;808;-82
2022/02/06 02:49:31;;;;;;;;;;;21.60;43.30;;;;;;660027;29;1248;-81
2022/02/06 02:49:58;;;;;;;;;;;21.70;43.30;;;;;;660043;30;1667;-81
2022/02/06 02:50:22;;;;;;;;;;;21.70;43.20;;;;;;659790;30;1308;-80
2022/02/06 02:50:48;;;;;;;;;;;21.70;43.20;;;;;;660111;30;848;-80
2022/02/06 02:51:10;;;;;;;;;;;21.70;43.10;;;;;;659890;30;947;-82
2022/02/06 02:51:36;;;;;;;;;;;21.60;43.10;;;;;;660124;30;820;-81
2022/02/06 02:52:02;;;;;;;;;;;21.60;43.10;;;;;;660133;30;856;-82
2022/02/06 02:53:38;;;;;;;;;;;21.70;43.40;;;;;;667644;29;705;-82
2022/02/06 02:54:05;;;;;;;;;;;21.70;43.30;;;;;;667557;29;1017;-81
2022/02/06 02:54:28;;;;;;;;;;;21.70;43.30;;;;;;664964;29;890;-82
2022/02/06 02:54:52;;;;;;;;;;;21.70;43.50;;;;;;664850;29;1402;-81
2022/02/06 02:55:42;;;;;;;;;;;21.60;43.40;;;;;;664960;29;848;-81
2022/02/06 02:56:28;;;;;;;;;;;21.70;43.60;;;;;;665146;29;1915;-82
2022/02/06 02:57:02;;;;;;;;;;;21.70;43.30;;;;;;667145;29;1699;-81
2022/02/06 02:57:40;;;;;;;;;;;21.60;43.40;;;;;;667516;29;947;-81
2022/02/06 02:59:31;;;;;;;;;;;21.60;43.40;;;;;;667426;29;1406;-81
2022/02/06 03:00:26;;;;;;;;;;;21.60;43.50;;;;;;668130;29;1066;-80
2022/02/06 03:01:07;;;;;;;;;;;21.60;43.40;;;;;;670098;29;1925;-83
2022/02/06 03:01:35;;;;;;;;;;;21.60;43.50;;;;;;669856;29;1683;-86
2022/02/06 03:01:58;;;;;;;;;;;21.70;44.00;;;;;;667619;29;1346;-85
2022/02/06 03:02:19;;;;;;;;;;;21.60;45.40;;;;;;667757;29;839;-87
2022/02/06 03:02:39;;;;;;;;;;;21.60;46.30;;;;;;667663;29;1080;-87
2022/02/06 03:03:13;;;;;;;;;;;21.60;47.00;;;;;;667197;29;1445;-85
2022/02/06 03:03:37;;;;;;;;;;;21.60;47.40;;;;;;669977;29;1330;-84
2022/02/06 03:03:58;;;;;;;;;;;21.70;47.80;;;;;;667734;29;914;-86
2022/02/06 03:04:18;;;;;;;;;;;21.70;47.80;;;;;;667652;29;990;-84
2022/02/06 03:04:39;;;;;;;;;;;21.70;47.80;;;;;;667507;29;970;-83
2022/02/06 03:05:02;;;;;;;;;;;21.70;47.80;;;;;;667588;29;812;-83
2022/02/06 03:05:23;;;;;;;;;;;21.70;47.70;;;;;;669063;29;1309;-80
2022/02/06 03:05:47;;;;;;;;;;;21.60;47.60;;;;;;667622;29;828;-82
2022/02/06 03:06:08;;;;;;;;;;;21.60;47.60;;;;;;670072;29;899;-87
2022/02/06 03:06:29;;;;;;;;;;;21.70;47.50;;;;;;669744;29;1735;-88
2022/02/06 03:06:50;;;;;;;;;;;21.60;47.50;;;;;;669938;29;1505;-86
2022/02/06 03:07:10;;;;;;;;;;;21.70;47.40;;;;;;669276;29;1687;-84
2022/02/06 03:07:31;;;;;;;;;;;21.70;47.40;;;;;;670766;29;1710;-84
2022/02/06 03:07:53;;;;;;;;;;;21.70;48.40;;;;;;670297;29;1666;-85
2022/02/06 03:08:13;;;;;;;;;;;21.70;47.10;;;;;;670139;29;1280;-84
2022/02/06 03:08:36;;;;;;;;;;;21.70;47.10;;;;;;669845;29;1219;-79
2022/02/06 03:08:58;;;;;;;;;;;21.70;47.00;;;;;;667613;29;820;-81
2022/02/06 03:09:21;;;;;;;;;;;21.60;46.80;;;;;;676601;29;1488;-77
2022/02/06 03:09:44;;;;;;;;;;;21.70;46.70;;;;;;677838;29;819;-82
2022/02/06 03:10:04;;;;;;;;;;;21.70;46.60;;;;;;677847;29;1262;-81
2022/02/06 03:10:25;;;;;;;;;;;21.70;47.00;;;;;;677866;29;1187;-84
2022/02/06 03:10:46;;;;;;;;;;;21.70;46.40;;;;;;685761;28;1097;-83
2022/02/06 03:11:09;;;;;;;;;;;21.70;46.40;;;;;;689431;28;846;-82
2022/02/06 03:11:29;;;;;;;;;;;21.70;46.30;;;;;;691171;28;814;-80
2022/02/06 03:11:50;;;;;;;;;;;21.60;46.20;;;;;;688514;28;1122;-80
2022/02/06 03:12:14;;;;;;;;;;;21.70;46.50;;;;;;689284;28;810;-80
2022/02/06 03:12:35;;;;;;;;;;;21.60;46.10;;;;;;691196;28;795;-83
2022/02/06 03:12:56;;;;;;;;;;;21.70;46.20;;;;;;691239;28;853;-85
2022/02/06 03:13:19;;;;;;;;;;;21.70;46.10;;;;;;691158;28;1229;-86
2022/02/06 03:14:25;;;;;;;;;;;21.70;46.00;;;;;;688613;28;649;-79
2022/02/06 03:14:53;;;;;;;;;;;21.70;45.80;;;;;;688519;28;897;-78
2022/02/06 03:15:26;;;;;;;;;;;21.70;45.80;;;;;;690373;28;933;-78
2022/02/06 03:15:59;;;;;;;;;;;21.70;45.70;;;;;;691235;28;1424;-79
2022/02/06 03:16:30;;;;;;;;;;;21.70;45.70;;;;;;691488;28;846;-79
2022/02/06 03:17:01;;;;;;;;;;;21.70;45.70;;;;;;691275;28;1358;-82
2022/02/06 03:17:34;;;;;;;;;;;21.60;45.60;;;;;;691167;28;1263;-80
2022/02/06 03:18:01;;;;;;;;;;;21.70;45.60;;;;;;691158;28;929;-79
2022/02/06 03:18:27;;;;;;;;;;;21.70;45.60;;;;;;691264;28;862;-83
2022/02/06 03:18:57;;;;;;;;;;;21.70;45.60;;;;;;691273;28;783;-78
2022/02/06 03:19:20;;;;;;;;;;;21.60;45.40;;;;;;691137;28;1256;-80
2022/02/06 03:19:52;;;;;;;;;;;21.60;45.50;;;;;;691078;28;1433;-82
2022/02/06 03:20:18;;;;;;;;;;;21.60;45.40;;;;;;691219;28;1208;-84
2022/02/06 03:20:39;;;;;;;;;;;21.60;45.40;;;;;;691229;28;815;-84
2022/02/06 03:21:03;;;;;;;;;;;21.60;45.30;;;;;;688564;28;1326;-85
2022/02/06 03:21:27;;;;;;;;;;;21.70;45.40;;;;;;691294;28;1328;-86
2022/02/06 03:21:48;;;;;;;;;;;21.60;45.30;;;;;;691320;28;882;-83
2022/02/06 03:22:08;;;;;;;;;;;21.60;45.50;;;;;;691209;28;850;-87
2022/02/06 03:22:35;;;;;;;;;;;21.60;45.30;;;;;;691242;28;1209;-85
2022/02/06 03:22:59;;;;;;;;;;;21.60;45.50;;;;;;693231;28;877;-81
2022/02/06 03:23:20;;;;;;;;;;;21.60;45.40;;;;;;691350;28;877;-85
2022/02/06 03:23:48;;;;;;;;;;;21.60;45.30;;;;;;691292;28;949;-82
2022/02/06 03:24:22;;;;;;;;;;;21.60;45.40;;;;;;691255;28;846;-82
2022/02/06 03:24:43;;;;;;;;;;;21.70;45.40;;;;;;691138;28;1289;-85
2022/02/06 03:25:08;;;;;;;;;;;21.70;45.70;;;;;;688330;28;1307;-84
2022/02/06 03:25:28;;;;;;;;;;;21.60;45.60;;;;;;688659;28;909;-82
2022/02/06 03:25:52;;;;;;;;;;;21.70;45.50;;;;;;688606;28;783;-80
2022/02/06 03:26:13;;;;;;;;;;;21.60;46.50;;;;;;688525;28;814;-80
2022/02/06 03:26:34;;;;;;;;;;;21.70;45.40;;;;;;689598;28;946;-79
2022/02/06 03:26:55;;;;;;;;;;;21.60;45.30;;;;;;691466;28;843;-82
2022/02/06 03:27:16;;;;;;;;;;;21.60;45.10;;;;;;688524;28;783;-81
2022/02/06 03:27:37;;;;;;;;;;;21.60;45.00;;;;;;688649;28;795;-81
2022/02/06 03:27:57;;;;;;;;;;;21.60;45.10;;;;;;688471;28;850;-80
2022/02/06 03:28:19;;;;;;;;;;;21.60;45.20;;;;;;686009;28;1472;-83
2022/02/06 03:28:39;;;;;;;;;;;21.60;45.00;;;;;;688400;28;1399;-80
2022/02/06 03:29:00;;;;;;;;;;;21.60;45.00;;;;;;688407;28;810;-80
2022/02/06 03:29:21;;;;;;;;;;;21.60;45.10;;;;;;688201;28;1315;-82
2022/02/06 03:29:43;;;;;;;;;;;21.60;45.20;;;;;;688543;28;802;-82
2022/02/06 03:30:05;;;;;;;;;;;21.60;45.00;;;;;;688606;28;862;-82
2022/02/06 03:30:29;;;;;;;;;;;21.60;45.00;;;;;;688470;28;1042;-81
2022/02/06 03:30:51;;;;;;;;;;;21.60;45.20;;;;;;688394;28;1304;-85
2022/02/06 03:31:12;;;;;;;;;;;21.60;45.00;;;;;;688484;28;842;-79
2022/02/06 03:31:33;;;;;;;;;;;21.60;45.00;;;;;;685765;28;1223;-83
2022/02/06 03:31:54;;;;;;;;;;;21.60;45.00;;;;;;685885;28;866;-83
2022/02/06 03:32:15;;;;;;;;;;;21.70;45.10;;;;;;685882;28;866;-85
2022/02/06 03:32:35;;;;;;;;;;;21.60;44.90;;;;;;686446;28;815;-83
2022/02/06 03:32:56;;;;;;;;;;;21.60;45.10;;;;;;688509;28;1016;-82
2022/02/06 03:33:17;;;;;;;;;;;21.60;44.90;;;;;;688517;28;882;-85
2022/02/06 03:33:37;;;;;;;;;;;21.60;45.00;;;;;;688682;28;909;-84
2022/02/06 03:33:58;;;;;;;;;;;21.60;45.10;;;;;;688666;28;799;-80
2022/02/06 03:34:18;;;;;;;;;;;21.60;44.90;;;;;;688660;28;917;-81
2022/02/06 03:34:39;;;;;;;;;;;21.60;44.90;;;;;;688653;28;782;-84
2022/02/06 03:35:00;;;;;;;;;;;21.60;45.00;;;;;;688597;28;795;-84
2022/02/06 03:35:20;;;;;;;;;;;21.60;44.90;;;;;;688417;28;1013;-81
2022/02/06 03:35:41;;;;;;;;;;;21.60;45.00;;;;;;688729;28;791;-81
2022/02/06 03:36:02;;;;;;;;;;;21.60;44.90;;;;;;688644;28;1910;-81
2022/02/06 03:36:23;;;;;;;;;;;21.60;44.90;;;;;;687907;28;1315;-79
2022/02/06 03:36:43;;;;;;;;;;;21.60;44.80;;;;;;688433;28;909;-82
2022/02/06 03:37:04;;;;;;;;;;;21.60;44.90;;;;;;688312;28;846;-79
2022/02/06 03:37:24;;;;;;;;;;;21.60;44.90;;;;;;688551;28;850;-82
2022/02/06 03:37:45;;;;;;;;;;;21.60;44.80;;;;;;688517;28;865;-82
2022/02/06 03:38:06;;;;;;;;;;;21.60;44.90;;;;;;688518;28;858;-82
2022/02/06 03:38:27;;;;;;;;;;;21.60;44.80;;;;;;688564;28;1445;-82
2022/02/06 03:38:48;;;;;;;;;;;21.70;44.90;;;;;;688710;28;873;-80
2022/02/06 03:39:09;;;;;;;;;;;21.60;44.90;;;;;;688650;28;654;-83
2022/02/06 03:39:34;;;;;;;;;;;21.60;44.80;;;;;;688577;28;1351;-80
2022/02/06 03:39:56;;;;;;;;;;;21.60;45.10;;;;;;688655;28;854;-82
2022/02/06 03:40:26;;;;;;;;;;;21.60;44.80;;;;;;688668;28;838;-84
2022/02/06 03:40:57;;;;;;;;;;;21.60;44.80;;;;;;688218;28;1190;-84
2022/02/06 03:41:18;;;;;;;;;;;21.60;44.80;;;;;;688333;28;1237;-81